createdAt,value
2017-12-06T00:01:42.372Z,14.57
2017-12-06T00:04:13.193Z,13.90
2017-12-06T00:06:44.034Z,14.43
2017-12-06T00:09:14.879Z,14.00
2017-12-06T00:11:45.776Z,13.10
2017-12-06T00:14:16.611Z,14.30
2017-12-06T00:16:47.483Z,12.70
2017-12-06T00:19:18.360Z,13.43
2017-12-06T00:21:49.211Z,14.20
2017-12-06T00:24:20.073Z,11.90
2017-12-06T00:26:50.950Z,13.10
2017-12-06T00:29:21.803Z,14.10
2017-12-06T00:31:52.677Z,12.10
2017-12-06T00:34:23.538Z,12.33
2017-12-06T00:36:54.392Z,13.07
2017-12-06T00:39:25.259Z,11.13
2017-12-06T00:41:56.112Z,12.10
2017-12-06T00:44:27.000Z,13.33
2017-12-06T00:46:57.880Z,11.50
2017-12-06T00:49:28.715Z,13.00
2017-12-06T00:51:59.590Z,12.17
2017-12-06T00:54:30.431Z,12.73
2017-12-06T00:57:01.313Z,11.67
2017-12-06T00:59:32.173Z,11.63
2017-12-06T01:02:03.060Z,11.57
2017-12-06T01:04:33.913Z,10.97
2017-12-06T01:07:04.791Z,11.30
2017-12-06T01:09:35.646Z,12.33
2017-12-06T01:12:06.518Z,10.83
2017-12-06T01:14:37.351Z,11.80
2017-12-06T01:17:08.219Z,11.17
2017-12-06T01:19:39.066Z,11.40
2017-12-06T01:22:09.983Z,10.80
2017-12-06T01:24:40.800Z,10.27
2017-12-06T01:27:11.658Z,10.80
2017-12-06T01:29:42.521Z,10.83
2017-12-06T01:32:13.378Z,10.13
2017-12-06T01:34:44.222Z,10.70
2017-12-06T01:37:15.087Z,9.90
2017-12-06T01:39:45.962Z,9.53
2017-12-06T01:42:16.815Z,9.43
2017-12-06T01:44:47.662Z,9.37
2017-12-06T01:47:18.541Z,8.73
2017-12-06T01:49:49.383Z,9.97
2017-12-06T01:52:20.236Z,9.37
2017-12-06T01:54:51.082Z,9.17
2017-12-06T01:57:21.966Z,9.40
2017-12-06T01:59:52.804Z,9.57
2017-12-06T02:02:23.659Z,9.40
2017-12-06T02:04:54.489Z,9.13
2017-12-06T02:07:25.325Z,9.03
2017-12-06T02:09:56.182Z,8.57
2017-12-06T02:12:27.037Z,8.80
2017-12-06T02:14:57.905Z,8.73
2017-12-06T02:17:28.788Z,8.23
2017-12-06T02:19:59.653Z,8.00
2017-12-06T02:22:30.504Z,8.90
2017-12-06T02:25:01.363Z,8.87
2017-12-06T02:27:32.219Z,8.50
2017-12-06T02:30:03.079Z,8.40
2017-12-06T02:32:33.929Z,8.20
2017-12-06T02:35:04.777Z,7.90
2017-12-06T02:37:35.652Z,8.23
2017-12-06T02:40:06.506Z,9.33
2017-12-06T02:42:37.379Z,7.90
2017-12-06T02:45:08.224Z,8.10
2017-12-06T02:47:39.095Z,7.87
2017-12-06T02:50:09.935Z,8.10
2017-12-06T02:52:40.788Z,8.63
2017-12-06T02:55:11.635Z,8.27
2017-12-06T02:57:42.475Z,8.03
2017-12-06T03:00:13.332Z,7.53
2017-12-06T03:02:44.182Z,8.87
2017-12-06T03:05:15.031Z,7.17
2017-12-06T03:07:45.908Z,6.63
2017-12-06T03:10:16.761Z,7.50
2017-12-06T03:12:47.640Z,6.83
2017-12-06T03:15:18.488Z,6.40
2017-12-06T03:17:49.372Z,7.50
2017-12-06T03:20:20.230Z,6.90
2017-12-06T03:22:51.083Z,7.00
2017-12-06T03:25:21.934Z,7.23
2017-12-06T03:27:52.785Z,7.10
2017-12-06T03:30:23.654Z,7.60
2017-12-06T03:32:54.490Z,6.33
2017-12-06T03:35:25.356Z,7.30
2017-12-06T03:37:56.204Z,6.60
2017-12-06T03:40:27.065Z,6.40
2017-12-06T03:42:57.950Z,7.47
2017-12-06T03:45:28.793Z,6.70
2017-12-06T03:47:59.631Z,7.27
2017-12-06T03:50:30.482Z,6.90
2017-12-06T03:53:01.328Z,7.10
2017-12-06T03:55:32.197Z,6.03
2017-12-06T03:58:03.051Z,6.40
2017-12-06T04:00:33.903Z,6.50
2017-12-06T04:03:04.770Z,6.17
2017-12-06T04:05:35.621Z,6.13
2017-12-06T04:08:06.492Z,6.70
2017-12-06T04:10:37.356Z,6.93
2017-12-06T04:13:08.237Z,6.50
2017-12-06T04:15:39.071Z,6.80
2017-12-06T04:18:09.932Z,5.50
2017-12-06T04:20:40.798Z,6.13
2017-12-06T04:23:11.650Z,6.00
2017-12-06T04:25:42.516Z,6.63
2017-12-06T04:28:13.382Z,6.23
2017-12-06T04:30:44.231Z,5.33
2017-12-06T04:33:15.119Z,6.20
2017-12-06T04:35:45.961Z,5.70
2017-12-06T04:38:16.849Z,5.63
2017-12-06T04:40:47.707Z,5.90
2017-12-06T04:43:18.552Z,5.43
2017-12-06T04:45:49.419Z,6.03
2017-12-06T04:48:20.311Z,5.20
2017-12-06T04:50:51.158Z,5.40
2017-12-06T04:53:22.012Z,5.03
2017-12-06T04:55:52.864Z,6.47
2017-12-06T04:58:23.711Z,5.50
2017-12-06T05:00:54.578Z,4.67
2017-12-06T05:03:25.427Z,5.73
2017-12-06T05:05:56.296Z,5.47
2017-12-06T05:08:27.145Z,5.03
2017-12-06T05:10:58.010Z,5.20
2017-12-06T05:13:28.888Z,5.60
2017-12-06T05:15:59.743Z,5.70
2017-12-06T05:18:30.621Z,4.90
2017-12-06T05:21:01.471Z,4.73
2017-12-06T05:23:32.338Z,4.67
2017-12-06T05:26:03.183Z,5.33
2017-12-06T05:28:34.051Z,4.70
2017-12-06T05:31:04.910Z,5.10
2017-12-06T05:33:35.784Z,4.73
2017-12-06T05:36:06.662Z,4.70
2017-12-06T05:38:37.497Z,5.60
2017-12-06T05:41:08.375Z,5.10
2017-12-06T05:43:39.238Z,4.50
2017-12-06T05:46:10.079Z,4.40
2017-12-06T05:48:40.960Z,5.00
2017-12-06T05:51:11.808Z,4.53
2017-12-06T05:53:42.672Z,4.90
2017-12-06T05:56:13.511Z,4.63
2017-12-06T05:58:44.360Z,4.90
2017-12-06T06:01:15.191Z,4.60
2017-12-06T06:03:46.088Z,4.93
2017-12-06T06:06:16.952Z,4.73
2017-12-06T06:08:47.802Z,4.53
2017-12-06T06:11:18.647Z,4.17
2017-12-06T06:13:49.484Z,3.73
2017-12-06T06:16:20.373Z,4.30
2017-12-06T06:18:51.219Z,4.20
2017-12-06T06:21:22.104Z,3.67
2017-12-06T06:23:52.944Z,4.33
2017-12-06T06:26:23.800Z,4.17
2017-12-06T06:28:54.637Z,4.30
2017-12-06T06:31:25.508Z,3.90
2017-12-06T06:33:56.348Z,5.17
2017-12-06T06:36:27.228Z,4.37
2017-12-06T06:38:58.084Z,4.27
2017-12-06T06:41:28.941Z,3.67
2017-12-06T06:43:59.793Z,3.90
2017-12-06T06:46:30.666Z,4.00
2017-12-06T06:49:01.522Z,3.97
2017-12-06T06:51:32.384Z,3.60
2017-12-06T06:54:03.221Z,4.30
2017-12-06T06:56:34.104Z,3.70
2017-12-06T06:59:05.002Z,4.00
2017-12-06T07:01:35.831Z,3.73
2017-12-06T07:04:06.685Z,3.70
2017-12-06T07:06:37.572Z,3.60
2017-12-06T07:09:08.421Z,3.43
2017-12-06T07:11:39.274Z,4.10
2017-12-06T07:14:10.117Z,4.30
2017-12-06T07:16:40.969Z,3.53
2017-12-06T07:19:11.840Z,3.83
2017-12-06T07:21:42.692Z,3.10
2017-12-06T07:24:13.555Z,3.50
2017-12-06T07:26:44.388Z,3.00
2017-12-06T07:29:15.249Z,3.40
2017-12-06T07:31:46.099Z,3.77
2017-12-06T07:34:17.001Z,3.73
2017-12-06T07:36:47.832Z,3.60
2017-12-06T07:39:18.659Z,2.83
2017-12-06T07:41:49.512Z,3.60
2017-12-06T07:44:20.351Z,3.87
2017-12-06T07:46:51.219Z,3.37
2017-12-06T07:49:22.112Z,2.83
2017-12-06T07:51:52.936Z,3.17
2017-12-06T07:54:23.821Z,3.00
2017-12-06T07:56:54.693Z,3.63
2017-12-06T07:59:25.532Z,3.33
2017-12-06T08:01:56.405Z,3.07
2017-12-06T08:04:27.261Z,3.87
2017-12-06T08:06:58.150Z,3.70
2017-12-06T08:09:28.994Z,3.80
2017-12-06T08:11:59.887Z,2.97
2017-12-06T08:14:30.732Z,3.20
2017-12-06T08:17:01.584Z,3.47
2017-12-06T08:19:32.429Z,2.93
2017-12-06T08:22:03.300Z,3.07
2017-12-06T08:24:34.168Z,3.00
2017-12-06T08:27:05.029Z,3.50
2017-12-06T08:29:35.905Z,3.37
2017-12-06T08:32:06.752Z,3.50
2017-12-06T08:34:37.618Z,3.10
2017-12-06T08:37:08.474Z,3.23
2017-12-06T08:39:39.336Z,3.63
2017-12-06T08:42:10.195Z,3.17
2017-12-06T08:44:41.182Z,2.93
2017-12-06T08:47:12.015Z,3.33
2017-12-06T08:49:42.871Z,3.00
2017-12-06T08:52:13.722Z,2.90
2017-12-06T08:54:44.581Z,3.30
2017-12-06T08:57:15.433Z,3.53
2017-12-06T08:59:46.283Z,3.50
2017-12-06T09:02:17.151Z,4.10
2017-12-06T09:04:48.050Z,3.07
2017-12-06T09:07:18.890Z,2.93
2017-12-06T09:09:49.764Z,2.83
2017-12-06T09:12:20.640Z,3.23
2017-12-06T09:14:51.475Z,2.37
2017-12-06T09:17:22.363Z,2.60
2017-12-06T09:19:53.204Z,2.93
2017-12-06T09:22:24.064Z,2.77
2017-12-06T09:24:54.934Z,3.20
2017-12-06T09:27:25.792Z,3.03
2017-12-06T09:29:56.659Z,2.50
2017-12-06T09:32:27.519Z,2.83
2017-12-06T09:34:58.356Z,2.80
2017-12-06T09:37:29.231Z,2.90
2017-12-06T09:40:00.082Z,3.20
2017-12-06T09:42:30.952Z,2.03
2017-12-06T09:45:01.790Z,2.87
2017-12-06T09:47:32.653Z,2.30
2017-12-06T09:50:03.503Z,2.83
2017-12-06T09:52:34.361Z,2.63
2017-12-06T09:55:05.220Z,3.47
2017-12-06T09:57:36.073Z,2.90
2017-12-06T10:00:06.961Z,2.30
2017-12-06T10:02:37.800Z,2.70
2017-12-06T10:05:08.661Z,2.90
2017-12-06T10:07:39.523Z,2.77
2017-12-06T10:10:10.365Z,2.90
2017-12-06T10:12:41.227Z,2.60
2017-12-06T10:15:12.124Z,2.93
2017-12-06T10:17:42.969Z,2.60
2017-12-06T10:20:13.843Z,2.47
2017-12-06T10:22:44.699Z,2.20
2017-12-06T10:25:15.557Z,2.50
2017-12-06T10:27:46.430Z,2.33
2017-12-06T10:30:17.295Z,2.40
2017-12-06T10:32:48.143Z,2.37
2017-12-06T10:35:19.001Z,2.67
2017-12-06T10:37:49.873Z,2.63
2017-12-06T10:40:20.742Z,2.33
2017-12-06T10:42:51.616Z,2.40
2017-12-06T10:45:22.486Z,2.70
2017-12-06T10:47:53.359Z,2.30
2017-12-06T10:50:24.224Z,2.13
2017-12-06T10:52:55.088Z,2.10
2017-12-06T10:55:25.932Z,2.33
2017-12-06T10:57:56.810Z,2.30
2017-12-06T11:00:27.658Z,2.17
2017-12-06T11:02:58.514Z,2.30
2017-12-06T11:05:29.366Z,2.27
2017-12-06T11:08:00.221Z,2.40
2017-12-06T11:10:31.079Z,2.07
2017-12-06T11:13:01.925Z,1.90
2017-12-06T11:15:32.787Z,2.50
2017-12-06T11:18:03.635Z,2.30
2017-12-06T11:20:34.495Z,2.13
2017-12-06T11:23:05.347Z,1.60
2017-12-06T11:25:36.200Z,2.10
2017-12-06T11:28:07.130Z,2.10
2017-12-06T11:30:37.984Z,2.27
2017-12-06T11:33:08.840Z,2.50
2017-12-06T11:35:39.684Z,2.33
2017-12-06T11:38:10.683Z,2.30
2017-12-06T11:40:41.518Z,2.10
2017-12-06T11:43:12.372Z,2.10
2017-12-06T11:45:43.296Z,2.17
2017-12-06T11:48:14.152Z,1.77
2017-12-06T11:50:44.995Z,2.07
2017-12-06T11:53:15.877Z,1.97
2017-12-06T11:55:46.712Z,1.90
2017-12-06T11:58:17.610Z,2.23
2017-12-06T12:00:48.439Z,2.13
2017-12-06T12:03:19.300Z,2.13
2017-12-06T12:05:50.148Z,2.37
2017-12-06T12:08:21.031Z,2.20
2017-12-06T12:10:52.548Z,1.87
2017-12-06T12:13:23.400Z,1.83
2017-12-06T12:15:54.269Z,1.40
2017-12-06T12:18:25.123Z,2.17
2017-12-06T12:20:56.042Z,1.70
2017-12-06T12:23:26.902Z,2.17
2017-12-06T12:25:57.801Z,2.20
2017-12-06T12:28:28.640Z,2.03
2017-12-06T12:30:59.501Z,1.77
2017-12-06T12:33:30.369Z,1.97
2017-12-06T12:36:01.216Z,1.73
2017-12-06T12:38:32.076Z,2.10
2017-12-06T12:41:02.932Z,2.37
2017-12-06T12:43:33.807Z,2.10
2017-12-06T12:46:04.663Z,1.63
2017-12-06T12:48:35.531Z,1.77
2017-12-06T12:51:06.497Z,2.00
2017-12-06T12:53:37.349Z,1.93
2017-12-06T12:56:08.220Z,1.50
2017-12-06T12:58:39.070Z,1.80
2017-12-06T13:01:09.924Z,2.17
2017-12-06T13:03:40.795Z,1.70
2017-12-06T13:06:11.664Z,1.93
2017-12-06T13:08:42.553Z,1.80
2017-12-06T13:11:13.373Z,1.70
2017-12-06T13:13:44.223Z,1.40
2017-12-06T13:16:15.106Z,2.20
2017-12-06T13:18:45.948Z,1.90
2017-12-06T13:21:16.957Z,2.13
2017-12-06T13:23:47.863Z,1.52
2017-12-06T13:26:18.734Z,1.83
2017-12-06T13:28:49.570Z,2.03
2017-12-06T13:31:20.461Z,2.10
2017-12-06T13:33:51.304Z,1.73
2017-12-06T13:36:22.162Z,1.73
2017-12-06T13:38:53.031Z,1.20
2017-12-06T13:41:23.897Z,1.93
2017-12-06T13:43:54.753Z,1.53
2017-12-06T13:46:25.613Z,1.90
2017-12-06T13:48:56.466Z,1.63
2017-12-06T13:51:27.353Z,1.83
2017-12-06T13:53:58.210Z,1.60
2017-12-06T13:56:29.099Z,2.40
2017-12-06T13:58:59.982Z,1.80
2017-12-06T14:01:30.840Z,1.77
2017-12-06T14:04:01.704Z,2.33
2017-12-06T14:06:32.596Z,1.67
2017-12-06T14:09:03.443Z,1.93
2017-12-06T14:11:34.306Z,1.70
2017-12-06T14:14:05.153Z,1.70
2017-12-06T14:16:36.029Z,1.87
2017-12-06T14:19:06.868Z,1.20
2017-12-06T14:21:37.723Z,1.80
2017-12-06T14:24:08.578Z,1.60
2017-12-06T14:26:39.540Z,1.70
2017-12-06T14:29:10.382Z,1.57
2017-12-06T14:31:41.282Z,1.70
2017-12-06T14:34:12.119Z,1.60
2017-12-06T14:36:42.979Z,1.90
2017-12-06T14:39:13.835Z,2.10
2017-12-06T14:41:44.676Z,1.97
2017-12-06T14:44:15.511Z,1.40
2017-12-06T14:46:46.360Z,1.53
2017-12-06T14:49:17.224Z,1.60
2017-12-06T14:51:48.077Z,1.70
2017-12-06T14:54:18.925Z,1.77
2017-12-06T14:56:49.813Z,1.60
2017-12-06T14:59:20.655Z,1.37
2017-12-06T15:01:51.533Z,1.70
2017-12-06T15:04:22.378Z,1.47
2017-12-06T15:06:53.239Z,1.87
2017-12-06T15:09:24.076Z,1.90
2017-12-06T15:11:55.025Z,1.70
2017-12-06T15:14:25.862Z,1.40
2017-12-06T15:16:56.744Z,1.93
2017-12-06T15:19:27.631Z,1.60
2017-12-06T15:21:58.484Z,1.47
2017-12-06T15:29:09.122Z,1.55
2017-12-06T15:31:39.961Z,1.90
2017-12-06T15:34:10.825Z,1.60
2017-12-06T15:36:41.651Z,1.50
2017-12-06T15:39:12.512Z,1.57
2017-12-06T15:41:43.352Z,2.17
2017-12-06T15:44:14.223Z,1.93
2017-12-06T15:46:45.057Z,1.93
2017-12-06T15:49:15.958Z,1.80
2017-12-06T15:51:46.792Z,1.60
2017-12-06T15:54:17.652Z,1.50
2017-12-06T15:56:48.528Z,1.50
2017-12-06T15:59:19.440Z,1.43
2017-12-06T16:01:50.306Z,1.77
2017-12-06T16:04:21.172Z,1.60
2017-12-06T16:06:52.038Z,1.70
2017-12-06T16:09:22.896Z,1.80
2017-12-06T16:11:53.747Z,1.20
2017-12-06T16:14:24.596Z,1.63
2017-12-06T16:16:55.464Z,2.03
2017-12-06T16:19:26.321Z,1.80
2017-12-06T16:21:57.212Z,1.60
2017-12-06T16:24:28.051Z,1.90
2017-12-06T16:26:59.261Z,1.50
2017-12-06T16:29:30.108Z,1.48
2017-12-06T16:32:01.013Z,1.63
2017-12-06T16:34:31.890Z,1.40
2017-12-06T16:37:02.792Z,1.57
2017-12-06T16:39:33.660Z,1.63
2017-12-06T16:42:04.507Z,1.50
2017-12-06T16:44:35.376Z,1.60
2017-12-06T16:47:06.229Z,1.73
2017-12-06T16:49:37.091Z,1.50
2017-12-06T16:52:07.940Z,1.40
2017-12-06T16:54:38.840Z,1.53
2017-12-06T16:57:09.690Z,1.63
2017-12-06T16:59:40.543Z,1.20
2017-12-06T17:02:11.439Z,1.53
2017-12-06T17:04:42.326Z,1.53
2017-12-06T17:07:13.231Z,1.73
2017-12-06T17:09:44.091Z,1.30
2017-12-06T17:12:14.961Z,1.57
2017-12-06T17:14:45.824Z,1.57
2017-12-06T17:17:16.700Z,1.90
2017-12-06T17:19:47.541Z,1.40
2017-12-06T17:22:18.453Z,1.90
2017-12-06T17:24:49.362Z,1.30
2017-12-06T17:27:20.263Z,1.47
2017-12-06T17:29:51.533Z,1.80
2017-12-06T17:32:22.403Z,1.67
2017-12-06T17:34:53.269Z,1.13
2017-12-06T17:37:24.126Z,1.30
2017-12-06T17:39:55.032Z,1.30
2017-12-06T17:42:25.900Z,1.23
2017-12-06T17:44:56.752Z,1.60
2017-12-06T17:47:27.646Z,1.50
2017-12-06T17:49:58.532Z,1.50
2017-12-06T17:52:29.446Z,1.50
2017-12-06T17:55:00.390Z,1.20
2017-12-06T17:57:31.259Z,1.50
2017-12-06T18:00:02.120Z,1.30
2017-12-06T18:02:33.108Z,1.10
2017-12-06T18:05:03.973Z,1.45
2017-12-06T18:07:34.867Z,1.40
2017-12-06T18:10:05.727Z,1.53
2017-12-06T18:12:36.572Z,1.40
2017-12-06T18:15:07.439Z,1.37
2017-12-06T18:17:38.299Z,1.63
2017-12-06T18:20:09.178Z,1.33
2017-12-06T18:22:40.109Z,1.50
2017-12-06T18:25:10.973Z,1.60
2017-12-06T18:27:41.816Z,1.63
2017-12-06T18:30:12.688Z,1.87
2017-12-06T18:32:43.664Z,1.53
2017-12-06T18:35:14.547Z,1.43
2017-12-06T18:37:45.404Z,1.37
2017-12-06T18:40:16.269Z,1.60
2017-12-06T18:42:47.138Z,1.50
2017-12-06T18:45:18.197Z,1.53
2017-12-06T18:47:49.036Z,1.52
2017-12-06T18:50:19.908Z,1.50
2017-12-06T18:52:50.813Z,1.50
2017-12-06T18:55:21.698Z,1.60
2017-12-06T18:57:52.564Z,1.60
2017-12-06T19:00:23.428Z,1.63
2017-12-06T19:02:54.320Z,1.30
2017-12-06T19:05:25.164Z,1.60
2017-12-06T19:07:56.052Z,1.43
2017-12-06T19:10:26.897Z,1.57
2017-12-06T19:12:57.771Z,1.57
2017-12-06T19:15:28.621Z,1.50
2017-12-06T19:17:59.506Z,1.47
2017-12-06T19:20:30.366Z,1.60
2017-12-06T19:23:01.260Z,1.60
2017-12-06T19:25:32.157Z,1.43
2017-12-06T19:28:03.003Z,1.67
2017-12-06T19:30:33.977Z,1.50
2017-12-06T19:33:04.848Z,1.40
2017-12-06T19:35:36.236Z,1.70
2017-12-06T19:38:07.114Z,1.90
2017-12-06T19:40:38.110Z,1.40
2017-12-06T19:43:08.961Z,1.60
2017-12-06T19:45:39.907Z,1.50
2017-12-06T19:48:10.755Z,1.27
2017-12-06T19:50:41.675Z,1.83
2017-12-06T19:53:12.539Z,1.50
2017-12-06T19:55:43.427Z,1.10
2017-12-06T19:58:14.330Z,1.30
2017-12-06T20:00:45.273Z,1.60
2017-12-06T20:03:16.111Z,1.27
2017-12-06T20:05:46.987Z,1.37
2017-12-06T20:08:17.875Z,1.57
2017-12-06T20:10:48.729Z,1.23
2017-12-06T20:13:19.604Z,1.60
2017-12-06T20:15:50.512Z,1.23
2017-12-06T20:18:21.904Z,1.70
2017-12-06T20:20:52.752Z,1.35
2017-12-06T20:23:23.639Z,71.77
2017-12-06T20:25:54.568Z,26.30
2017-12-06T20:28:25.653Z,21.50
2017-12-06T20:30:56.512Z,24.87
2017-12-06T20:33:27.438Z,26.40
2017-12-06T20:35:58.296Z,25.33
2017-12-06T20:38:29.244Z,24.97
2017-12-06T20:41:00.109Z,23.60
2017-12-06T20:43:30.976Z,19.90
2017-12-06T20:46:01.902Z,13.73
2017-12-06T20:48:32.871Z,9.70
2017-12-06T20:51:03.781Z,8.45
2017-12-06T20:53:34.666Z,14.40
2017-12-06T20:56:05.530Z,12.53
2017-12-06T20:58:36.406Z,9.40
2017-12-06T21:01:07.360Z,6.30
2017-12-06T21:03:38.274Z,6.37
2017-12-06T21:06:09.116Z,4.70
2017-12-06T21:08:39.984Z,3.20
2017-12-06T21:11:10.857Z,3.57
2017-12-06T21:13:41.959Z,3.17
2017-12-06T21:16:12.823Z,2.72
2017-12-06T21:18:43.744Z,2.47
2017-12-06T21:21:14.632Z,2.47
2017-12-06T21:23:45.503Z,2.37
2017-12-06T21:26:16.377Z,2.27
2017-12-06T21:28:47.284Z,2.40
2017-12-06T21:31:18.346Z,3.50
2017-12-06T21:33:49.223Z,2.80
2017-12-06T21:36:22.307Z,2.30
2017-12-06T21:38:53.237Z,2.30
2017-12-06T21:41:24.113Z,2.27
2017-12-06T21:43:54.976Z,1.77
2017-12-06T21:46:25.869Z,1.80
2017-12-06T21:48:56.719Z,1.60
2017-12-06T21:51:27.888Z,1.90
2017-12-06T21:53:58.753Z,2.35
2017-12-06T21:56:29.639Z,1.90
2017-12-06T21:59:00.489Z,1.77
2017-12-06T22:01:31.358Z,1.70
2017-12-06T22:04:02.246Z,1.90
2017-12-06T22:06:33.104Z,2.00
2017-12-06T22:09:03.988Z,1.93
2017-12-06T22:11:34.829Z,2.23
2017-12-06T22:14:05.684Z,2.07
2017-12-06T22:16:36.537Z,1.90
2017-12-06T22:19:07.397Z,2.37
2017-12-06T22:21:38.294Z,2.10
2017-12-06T22:24:09.281Z,1.97
2017-12-06T22:26:40.231Z,2.40
2017-12-06T22:29:11.082Z,2.23
2017-12-06T22:31:41.954Z,4.67
2017-12-06T22:34:12.882Z,8.20
2017-12-06T22:36:43.748Z,11.13
2017-12-06T22:39:14.620Z,11.23
2017-12-06T22:41:45.491Z,11.20
2017-12-06T22:44:16.394Z,11.50
2017-12-06T22:46:47.293Z,12.03
2017-12-06T22:49:18.128Z,11.83
2017-12-06T22:51:49.019Z,10.20
2017-12-06T22:54:19.893Z,10.50
2017-12-06T22:56:51.639Z,10.38
2017-12-06T22:59:22.484Z,10.23
2017-12-06T23:01:53.359Z,9.27
2017-12-06T23:04:24.220Z,10.30
2017-12-06T23:06:55.109Z,9.40
2017-12-06T23:09:25.997Z,9.80
2017-12-06T23:11:56.875Z,10.17
2017-12-06T23:14:27.707Z,9.93
2017-12-06T23:16:58.596Z,9.00
2017-12-06T23:19:29.435Z,9.20
2017-12-06T23:22:00.379Z,9.40
2017-12-06T23:24:31.240Z,9.63
2017-12-06T23:27:02.099Z,8.40
2017-12-06T23:29:32.964Z,8.60
2017-12-06T23:32:03.814Z,8.30
2017-12-06T23:34:34.672Z,8.43
2017-12-06T23:37:05.512Z,7.87
2017-12-06T23:39:36.398Z,8.20
2017-12-06T23:42:07.260Z,7.93
2017-12-06T23:44:38.219Z,8.50
2017-12-06T23:47:09.044Z,9.10
2017-12-06T23:49:39.899Z,8.80
2017-12-06T23:52:10.745Z,9.93
2017-12-06T23:54:41.623Z,7.10
2017-12-06T23:57:12.764Z,8.00
2017-12-06T23:59:43.628Z,8.90
